createdAt,value
2019-05-28T04:27:23.738Z,276.00
2019-05-28T05:02:59.277Z,344.00
2019-05-28T05:16:09.190Z,412.00
2019-05-28T05:18:09.190Z,472.00
2019-05-28T05:31:09.057Z,612.00
2019-05-28T05:33:19.897Z,640.00
2019-05-28T05:34:30.678Z,708.00
2019-05-28T05:35:30.820Z,724.00
2019-05-28T05:36:30.651Z,720.00
2019-05-28T05:38:30.623Z,712.00
2019-05-28T05:41:30.593Z,764.00
2019-05-28T05:42:30.582Z,812.00
2019-05-28T05:44:30.559Z,956.00
2019-05-28T05:45:30.547Z,1004.00
2019-05-28T05:46:30.548Z,1040.00
2019-05-28T05:47:30.543Z,1080.00
2019-05-28T05:48:30.539Z,1128.00
2019-05-28T05:49:30.512Z,1196.00
2019-05-28T05:50:30.493Z,1284.00
2019-05-28T05:51:30.489Z,1408.00
2019-05-28T05:52:30.478Z,1548.00
2019-05-28T05:53:30.510Z,1652.00
2019-05-28T05:54:30.448Z,1724.00
2019-05-28T05:55:30.458Z,1788.00
2019-05-28T05:56:30.430Z,1848.00
2019-05-28T05:57:30.430Z,1888.00
2019-05-28T05:58:30.409Z,1844.00
2019-05-28T05:59:30.428Z,1756.00
2019-05-28T06:00:30.383Z,1680.00
2019-05-28T06:01:30.388Z,1608.00
2019-05-28T06:02:30.363Z,1536.00
2019-05-28T06:03:40.201Z,1436.00
2019-05-28T06:04:52.627Z,1256.00
2019-05-28T06:05:52.474Z,1144.00
2019-05-28T06:06:52.491Z,1020.00
2019-05-28T06:07:52.583Z,972.00
2019-05-28T06:08:53.494Z,972.00
2019-05-28T06:09:52.469Z,984.00
2019-05-28T06:10:52.475Z,1004.00
2019-05-28T06:11:53.719Z,1020.00
2019-05-28T06:12:52.466Z,1068.00
2019-05-28T06:13:55.433Z,1152.00
2019-05-28T06:14:52.670Z,1288.00
2019-05-28T06:15:52.427Z,1444.00
2019-05-28T06:16:52.437Z,1604.00
2019-05-28T06:17:52.842Z,1644.00
2019-05-28T06:18:52.323Z,1720.00
2019-05-28T06:19:53.036Z,1708.00
2019-05-28T06:21:10.614Z,1696.00
2019-05-28T06:22:51.302Z,1724.00
2019-05-28T06:23:51.293Z,1708.00
2019-05-28T06:24:53.422Z,1776.00
2019-05-28T06:25:51.263Z,1884.00
2019-05-28T06:26:51.242Z,1848.00
2019-05-28T06:27:51.236Z,1824.00
2019-05-28T06:28:51.512Z,1824.00
2019-05-28T06:29:51.242Z,1844.00
2019-05-28T06:30:51.221Z,1884.00
2019-05-28T06:31:52.217Z,1920.00
2019-05-28T06:32:51.289Z,1904.00
2019-05-28T06:33:56.947Z,1860.00
2019-05-28T06:35:30.946Z,1812.00
2019-05-28T06:36:30.910Z,1772.00
2019-05-28T06:37:30.900Z,1736.00
2019-05-28T06:38:33.255Z,1752.00
2019-05-28T06:39:31.025Z,1876.00
2019-05-28T06:40:30.895Z,1884.00
2019-05-28T06:41:30.880Z,1856.00
2019-05-28T06:42:34.311Z,1812.00
2019-05-28T06:43:53.030Z,1688.00
2019-05-28T06:44:52.644Z,1708.00
2019-05-28T06:45:52.630Z,1764.00
2019-05-28T06:46:52.606Z,1772.00
2019-05-28T06:47:52.681Z,1656.00
2019-05-28T06:48:52.594Z,1616.00
2019-05-28T06:49:52.579Z,1644.00
2019-05-28T06:50:52.574Z,1688.00
2019-05-28T06:51:52.560Z,1700.00
2019-05-28T06:52:52.543Z,1732.00
2019-05-28T06:53:52.532Z,1844.00
2019-05-28T06:54:52.575Z,2044.00
2019-05-28T06:55:52.511Z,2232.00
2019-05-28T06:56:52.496Z,2428.00
2019-05-28T06:57:52.496Z,2536.00
2019-05-28T06:58:52.499Z,2484.00
2019-05-28T06:59:52.463Z,2468.00
2019-05-28T07:00:52.585Z,2612.00
2019-05-28T07:01:52.456Z,2684.00
2019-05-28T07:02:52.445Z,2656.00
2019-05-28T07:03:52.423Z,2620.00
2019-05-28T07:04:52.415Z,2676.00
2019-05-28T07:06:06.621Z,2604.00
2019-05-28T07:07:15.864Z,2484.00
2019-05-28T07:08:15.855Z,2476.00
2019-05-28T07:09:15.834Z,2444.00
2019-05-28T07:10:15.854Z,2492.00
2019-05-28T07:11:15.824Z,2444.00
2019-05-28T07:12:18.090Z,2344.00
2019-05-28T07:13:15.804Z,2384.00
2019-05-28T07:14:15.810Z,2532.00
2019-05-28T07:15:15.782Z,2616.00
2019-05-28T07:16:15.767Z,2592.00
2019-05-28T07:17:15.756Z,2496.00
2019-05-28T07:18:15.775Z,2516.00
2019-05-28T07:19:24.629Z,2504.00
2019-05-28T07:20:37.739Z,2464.00
2019-05-28T07:21:37.729Z,2372.00
2019-05-28T07:22:37.715Z,2292.00
2019-05-28T07:23:37.721Z,2184.00
2019-05-28T07:24:37.696Z,2028.00
2019-05-28T07:25:37.702Z,2068.00
2019-05-28T07:26:37.684Z,2140.00
2019-05-28T07:27:37.673Z,2300.00
2019-05-28T07:28:37.654Z,2560.00
2019-05-28T07:29:37.638Z,2448.00
2019-05-28T07:30:37.624Z,2576.00
2019-05-28T07:31:37.640Z,2664.00
2019-05-28T07:32:37.622Z,2676.00
2019-05-28T07:33:37.631Z,2752.00
2019-05-28T07:34:37.571Z,2772.00
2019-05-28T07:35:45.832Z,2784.00
2019-05-28T07:36:59.288Z,2912.00
2019-05-28T07:38:02.258Z,3020.00
2019-05-28T07:38:59.259Z,3032.00
2019-05-28T07:39:59.242Z,3160.00
2019-05-28T07:40:59.249Z,3152.00
2019-05-28T07:42:03.445Z,3152.00
2019-05-28T07:43:23.426Z,2956.00
2019-05-28T07:44:24.441Z,2984.00
2019-05-28T07:45:23.414Z,3084.00
2019-05-28T07:46:23.420Z,2672.00
2019-05-28T07:47:23.425Z,2544.00
2019-05-28T07:48:23.385Z,2440.00
2019-05-28T07:49:23.365Z,2392.00
2019-05-28T07:50:23.344Z,2392.00
2019-05-28T07:51:23.336Z,2552.00
2019-05-28T07:52:24.332Z,2600.00
2019-05-28T07:53:38.706Z,2392.00
2019-05-28T07:54:45.453Z,1996.00
2019-05-28T07:55:45.460Z,2340.00
2019-05-28T07:56:45.406Z,2404.00
2019-05-28T07:57:45.433Z,2400.00
2019-05-28T07:58:45.411Z,2360.00
2019-05-28T07:59:45.410Z,2424.00
2019-05-28T08:00:45.391Z,2336.00
2019-05-28T08:01:45.352Z,2252.00
2019-05-28T08:02:45.352Z,2376.00
2019-05-28T08:03:45.516Z,2544.00
2019-05-28T08:04:47.555Z,2688.00
2019-05-28T08:05:45.317Z,2836.00
2019-05-28T08:06:54.818Z,2964.00
2019-05-28T08:08:26.761Z,3132.00
2019-05-28T08:09:26.818Z,3228.00
2019-05-28T08:10:29.348Z,3324.00
2019-05-28T08:11:26.820Z,3624.00
2019-05-28T08:12:27.815Z,3240.00
2019-05-28T08:13:39.489Z,3076.00
2019-05-28T08:14:50.092Z,2772.00
2019-05-28T08:15:48.775Z,3128.00
2019-05-28T08:16:52.701Z,3180.00
2019-05-28T08:17:48.773Z,2764.00
2019-05-28T08:18:51.744Z,3368.00
2019-05-28T08:19:56.518Z,3208.00
2019-05-28T08:21:10.619Z,3536.00
2019-05-28T08:22:13.671Z,3364.00
2019-05-28T08:23:10.637Z,3432.00
2019-05-28T08:24:10.600Z,3688.00
2019-05-28T08:25:27.249Z,3308.00
2019-05-28T08:26:32.895Z,3060.00
2019-05-28T08:27:32.867Z,2824.00
2019-05-28T08:28:32.876Z,2620.00
2019-05-28T08:29:32.845Z,2472.00
2019-05-28T08:30:32.868Z,2376.00
2019-05-28T08:31:32.833Z,2284.00
2019-05-28T08:32:32.819Z,2200.00
2019-05-28T08:33:32.828Z,2068.00
2019-05-28T08:34:32.812Z,1912.00
2019-05-28T08:35:32.776Z,1792.00
2019-05-28T08:36:32.777Z,1704.00
2019-05-28T08:37:32.764Z,1716.00
2019-05-28T08:38:32.734Z,2188.00
2019-05-28T08:39:33.720Z,2176.00
2019-05-28T08:40:32.746Z,1960.00
2019-05-28T08:41:32.716Z,1900.00
2019-05-28T08:42:32.720Z,1728.00
2019-05-28T08:43:32.702Z,1968.00
2019-05-28T08:44:33.994Z,1664.00
2019-05-28T08:45:32.666Z,1496.00
2019-05-28T08:46:32.651Z,1672.00
2019-05-28T08:47:32.632Z,1784.00
2019-05-28T08:48:32.656Z,1756.00
2019-05-28T08:49:33.673Z,1912.00
2019-05-28T08:50:35.031Z,2208.00
2019-05-28T08:51:32.654Z,2376.00
2019-05-28T08:52:32.706Z,2484.00
2019-05-28T08:53:32.632Z,2780.00
2019-05-28T08:54:33.830Z,3000.00
2019-05-28T08:55:32.598Z,2776.00
2019-05-28T08:56:32.626Z,2776.00
2019-05-28T08:57:32.757Z,2664.00
2019-05-28T08:58:32.610Z,2480.00
2019-05-28T08:59:32.588Z,2032.00
2019-05-28T09:00:32.566Z,1936.00
2019-05-28T09:01:33.903Z,1928.00
2019-05-28T09:02:32.623Z,1812.00
2019-05-28T09:03:37.905Z,1736.00
2019-05-28T09:04:32.499Z,1696.00
2019-05-28T09:05:32.491Z,1588.00
2019-05-28T09:06:32.485Z,1476.00
2019-05-28T09:07:34.599Z,1500.00
2019-05-28T09:08:39.066Z,1556.00
2019-05-28T09:09:34.434Z,1592.00
2019-05-28T09:10:32.460Z,1728.00
2019-05-28T09:11:32.423Z,1900.00
2019-05-28T09:12:32.407Z,2068.00
2019-05-28T09:13:33.518Z,2056.00
2019-05-28T09:14:54.259Z,2224.00
2019-05-28T09:31:50.182Z,2620.00
2019-05-28T09:32:53.106Z,2416.00
2019-05-28T09:33:50.071Z,2272.00
2019-05-28T09:34:50.060Z,1788.00
2019-05-28T09:36:06.340Z,1524.00
2019-05-28T09:37:17.132Z,1480.00
2019-05-28T09:38:18.330Z,1528.00
2019-05-28T09:39:17.127Z,1640.00
2019-05-28T09:40:17.081Z,1752.00
2019-05-28T09:41:17.084Z,1952.00
2019-05-28T09:42:17.058Z,1760.00
2019-05-28T09:43:18.055Z,1760.00
2019-05-28T09:44:17.042Z,1740.00
2019-05-28T09:45:23.006Z,1680.00
2019-05-28T15:15:11.274Z,1400.00
2019-05-28T15:16:11.271Z,1476.00
2019-05-28T15:17:11.656Z,1476.00
2019-05-28T15:18:11.166Z,1352.00
2019-05-28T15:19:11.147Z,1156.00
2019-05-28T15:20:11.285Z,1060.00
2019-05-28T15:21:11.139Z,1028.00
2019-05-28T15:22:15.217Z,964.00
2019-05-28T15:23:11.122Z,908.00
2019-05-28T15:24:11.099Z,984.00
2019-05-28T15:25:11.158Z,1172.00
2019-05-28T15:26:11.067Z,1328.00
2019-05-28T15:27:11.069Z,1464.00
2019-05-28T15:28:11.065Z,1712.00
2019-05-28T15:29:11.081Z,1860.00
2019-05-28T15:30:11.080Z,1928.00
2019-05-28T15:31:11.006Z,2032.00
2019-05-28T15:32:11.038Z,2096.00
2019-05-28T15:33:11.015Z,2120.00
2019-05-28T15:34:10.984Z,2116.00
2019-05-28T15:35:10.968Z,2004.00
2019-05-28T15:36:10.953Z,1916.00
2019-05-28T15:37:10.949Z,1804.00
2019-05-28T15:38:10.971Z,1700.00
2019-05-28T15:39:10.932Z,1544.00
2019-05-28T15:40:10.997Z,1368.00
2019-05-28T15:41:10.903Z,1032.00
2019-05-28T15:42:19.932Z,888.00
2019-05-28T15:43:33.011Z,796.00
2019-05-28T15:44:32.999Z,712.00
2019-05-28T15:45:32.985Z,652.00
2019-05-28T15:46:32.999Z,608.00
2019-05-28T15:47:32.965Z,576.00
2019-05-28T15:48:32.953Z,560.00
2019-05-28T15:49:32.928Z,548.00
2019-05-28T15:50:32.930Z,540.00
2019-05-28T15:51:32.901Z,552.00
2019-05-28T15:52:32.896Z,584.00
2019-05-28T15:53:32.887Z,628.00
2019-05-28T15:54:32.873Z,708.00
2019-05-28T15:55:32.876Z,824.00
2019-05-28T15:56:32.859Z,964.00
2019-05-28T15:57:32.847Z,1096.00
2019-05-28T15:58:32.841Z,1240.00
2019-05-28T15:59:32.822Z,1360.00
2019-05-28T16:00:32.813Z,1500.00
2019-05-28T16:01:32.810Z,1696.00
2019-05-28T16:02:32.796Z,1888.00
2019-05-28T16:03:32.779Z,2020.00
2019-05-28T16:04:32.761Z,2132.00
2019-05-28T16:05:32.803Z,2268.00
2019-05-28T16:06:32.747Z,2408.00
2019-05-28T16:07:32.737Z,2468.00
2019-05-28T16:08:32.712Z,2516.00
2019-05-28T16:09:32.707Z,2524.00
2019-05-28T16:10:32.745Z,2404.00
2019-05-28T16:11:32.691Z,2276.00
2019-05-28T16:12:32.678Z,2076.00
2019-05-28T16:13:32.662Z,1880.00
2019-05-28T16:14:32.664Z,1828.00
2019-05-28T16:15:32.625Z,1708.00
2019-05-28T16:16:32.622Z,1628.00
2019-05-28T16:17:32.623Z,1488.00
2019-05-28T16:18:32.618Z,1352.00
2019-05-28T16:19:32.611Z,1096.00
2019-05-28T16:20:32.596Z,1260.00
2019-05-28T16:21:32.563Z,1308.00
2019-05-28T16:22:32.567Z,1504.00
2019-05-28T16:23:32.594Z,1520.00
2019-05-28T16:24:32.535Z,1076.00
2019-05-28T16:25:32.554Z,1084.00
2019-05-28T16:26:32.586Z,912.00
2019-05-28T16:27:32.507Z,900.00
2019-05-28T16:28:32.511Z,852.00
2019-05-28T16:29:32.543Z,820.00
2019-05-28T16:30:32.461Z,820.00
2019-05-28T16:31:32.447Z,816.00
2019-05-28T16:32:32.443Z,876.00
2019-05-28T16:33:32.431Z,792.00
2019-05-28T16:34:32.420Z,764.00
2019-05-28T16:35:32.424Z,716.00
2019-05-28T16:36:32.449Z,688.00
2019-05-28T16:37:32.385Z,656.00
2019-05-28T16:38:32.381Z,592.00
2019-05-28T16:39:32.372Z,588.00
2019-05-28T16:40:32.354Z,548.00
2019-05-28T16:41:32.350Z,464.00
2019-05-28T16:42:32.346Z,440.00
2019-05-28T16:43:32.336Z,432.00
2019-05-28T16:44:32.327Z,432.00
2019-05-28T16:45:32.310Z,432.00
2019-05-28T16:46:32.285Z,456.00
2019-05-28T16:47:32.276Z,512.00
2019-05-28T16:48:32.276Z,580.00
2019-05-28T16:49:32.252Z,660.00
2019-05-28T16:50:32.254Z,712.00
2019-05-28T16:51:32.227Z,732.00
2019-05-28T16:52:32.244Z,760.00
2019-05-28T16:53:32.208Z,808.00
2019-05-28T16:54:32.200Z,888.00
2019-05-28T16:55:32.215Z,1020.00
2019-05-28T16:56:32.283Z,1188.00
2019-05-28T16:57:32.208Z,1372.00
2019-05-28T16:58:32.162Z,1484.00
2019-05-28T16:59:32.139Z,1568.00
2019-05-28T17:00:32.143Z,1608.00
2019-05-28T17:01:32.121Z,1364.00
2019-05-28T17:02:32.129Z,1096.00
2019-05-28T17:03:32.123Z,948.00
2019-05-28T17:04:32.093Z,800.00
2019-05-28T17:05:32.096Z,724.00
2019-05-28T17:06:32.068Z,696.00
2019-05-28T17:07:32.053Z,700.00
2019-05-28T17:08:32.058Z,736.00
2019-05-28T17:09:32.048Z,784.00
2019-05-28T17:10:33.701Z,832.00
2019-05-28T17:11:32.021Z,872.00
2019-05-28T17:12:32.018Z,884.00
2019-05-28T17:13:31.993Z,904.00
2019-05-28T17:14:31.978Z,896.00
2019-05-28T17:15:31.975Z,896.00
2019-05-28T17:16:31.971Z,892.00
2019-05-28T17:17:31.960Z,908.00
2019-05-28T17:18:31.950Z,908.00
2019-05-28T17:19:31.928Z,896.00
2019-05-28T17:20:31.940Z,892.00
2019-05-28T17:21:31.905Z,936.00
2019-05-28T17:22:31.911Z,968.00
2019-05-28T17:23:31.902Z,984.00
2019-05-28T17:24:31.894Z,976.00
2019-05-28T17:25:31.869Z,972.00
2019-05-28T17:26:31.875Z,988.00
2019-05-28T17:27:31.839Z,1004.00
2019-05-28T17:28:31.844Z,1008.00
2019-05-28T17:29:31.841Z,1020.00
2019-05-28T17:30:31.816Z,1040.00
2019-05-28T17:31:31.803Z,1088.00
2019-05-28T17:32:31.785Z,1132.00
2019-05-28T17:33:31.802Z,1160.00
2019-05-28T17:34:31.856Z,1152.00
2019-05-28T17:35:31.753Z,1152.00
2019-05-28T17:36:31.753Z,1156.00
2019-05-28T17:37:31.733Z,1156.00
2019-05-28T17:38:31.719Z,1124.00
2019-05-28T17:39:31.752Z,1028.00
2019-05-28T17:40:47.127Z,896.00
2019-05-28T17:41:54.803Z,800.00
2019-05-28T17:42:54.795Z,808.00
2019-05-28T17:43:54.790Z,832.00
2019-05-28T17:44:54.832Z,840.00
2019-05-28T17:45:54.789Z,804.00
2019-05-28T17:46:54.799Z,788.00
2019-05-28T17:48:54.732Z,752.00
2019-05-28T17:49:54.746Z,688.00
2019-05-28T17:50:54.703Z,636.00
2019-05-28T17:51:54.724Z,600.00
2019-05-28T17:52:54.687Z,576.00
2019-05-28T17:53:54.676Z,572.00
2019-05-28T17:55:54.660Z,560.00
2019-05-28T17:56:54.644Z,544.00
2019-05-28T17:57:54.651Z,576.00
2019-05-28T17:58:54.640Z,556.00
2019-05-28T17:59:54.611Z,508.00
2019-05-28T18:00:54.600Z,456.00
2019-05-28T18:01:54.600Z,476.00
2019-05-28T18:02:54.578Z,460.00
2019-05-28T18:03:54.585Z,452.00
2019-05-28T18:04:54.568Z,404.00
2019-05-28T18:06:54.533Z,340.00
2019-05-28T18:08:54.517Z,500.00
2019-05-28T18:09:54.526Z,612.00
2019-05-28T18:11:03.741Z,752.00
2019-05-28T18:12:16.613Z,796.00
2019-05-28T18:13:16.597Z,672.00
2019-05-28T18:14:16.584Z,552.00
2019-05-28T18:15:16.567Z,420.00
2019-05-28T18:16:16.564Z,380.00
2019-05-28T18:17:16.614Z,372.00
2019-05-28T18:18:16.589Z,408.00
2019-05-28T18:19:16.539Z,436.00
2019-05-28T18:20:16.529Z,424.00
2019-05-28T18:22:16.509Z,388.00
2019-05-28T18:23:16.513Z,376.00
2019-05-28T18:24:16.536Z,364.00
2019-05-28T18:25:19.922Z,364.00
2019-05-28T18:26:16.482Z,344.00
2019-05-28T18:27:16.481Z,320.00
2019-05-28T18:28:16.460Z,296.00
2019-05-28T18:29:16.505Z,272.00
2019-05-28T18:30:16.417Z,256.00
2019-05-28T18:32:16.393Z,196.00
2019-05-28T18:33:16.372Z,156.00
2019-05-28T18:34:16.368Z,136.00
2019-05-28T18:35:16.363Z,132.00
2019-05-28T18:36:16.440Z,132.00
2019-05-28T18:37:16.339Z,128.00
2019-05-28T18:38:16.322Z,112.00
